createdAt,value
2016-04-03T00:00:37.465Z,0
2016-04-03T00:01:37.670Z,0
2016-04-03T00:02:51.986Z,0
2016-04-03T00:03:37.661Z,0
2016-04-03T00:04:37.491Z,0
2016-04-03T00:05:37.494Z,0
2016-04-03T00:06:36.997Z,0
2016-04-03T00:07:37.500Z,0
2016-04-03T00:08:37.517Z,0
2016-04-03T00:09:37.927Z,0
2016-04-03T00:10:37.536Z,0
2016-04-03T00:11:37.226Z,0
2016-04-03T00:12:37.744Z,0
2016-04-03T00:13:37.497Z,0
2016-04-03T00:14:51.612Z,0
2016-04-03T00:15:37.768Z,0
2016-04-03T00:16:37.708Z,0
2016-04-03T00:17:37.899Z,0
2016-04-03T00:18:51.686Z,0
2016-04-03T00:19:37.733Z,0
2016-04-03T00:20:37.501Z,0
2016-04-03T00:21:37.519Z,0
2016-04-03T00:22:37.507Z,0
2016-04-03T00:23:37.509Z,0
2016-04-03T00:24:37.512Z,0
2016-04-03T00:25:37.764Z,0
2016-04-03T00:27:37.723Z,0
2016-04-03T00:28:37.757Z,0
2016-04-03T00:29:37.541Z,0
2016-04-03T00:30:37.731Z,0
2016-04-03T00:31:51.158Z,0
2016-04-03T00:32:52.036Z,0
2016-04-03T00:33:37.536Z,0
2016-04-03T00:34:37.585Z,0
2016-04-03T00:35:37.056Z,0
2016-04-03T00:36:37.731Z,0
2016-04-03T00:37:37.780Z,0
2016-04-03T00:38:37.533Z,0
2016-04-03T00:39:37.583Z,0
2016-04-03T00:40:37.539Z,0
2016-04-03T00:41:37.542Z,0
2016-04-03T00:42:37.748Z,0
2016-04-03T00:43:37.578Z,0
2016-04-03T00:44:37.987Z,0
2016-04-03T00:45:37.568Z,0
2016-04-03T00:46:37.571Z,0
2016-04-03T00:47:38.011Z,0
2016-04-03T00:48:38.404Z,0
2016-04-03T00:49:37.782Z,0
2016-04-03T00:50:37.565Z,0
2016-04-03T00:51:51.883Z,0
2016-04-03T00:52:37.571Z,0
2016-04-03T00:53:37.621Z,0
2016-04-03T00:54:37.593Z,0
2016-04-03T00:55:37.329Z,0
2016-04-03T00:56:52.100Z,0
2016-04-03T00:57:37.131Z,0
2016-04-03T00:58:37.806Z,0
2016-04-03T00:59:37.574Z,0
2016-04-03T01:00:37.576Z,0
2016-04-03T01:01:37.596Z,0
2016-04-03T01:02:37.582Z,0
2016-04-03T01:03:38.835Z,0
2016-04-03T01:04:37.698Z,0
2016-04-03T01:05:37.623Z,0
2016-04-03T01:06:37.812Z,0
2016-04-03T01:07:37.478Z,0
2016-04-03T01:08:38.199Z,0
2016-04-03T01:09:37.108Z,0
2016-04-03T01:10:37.813Z,0
2016-04-03T01:11:37.644Z,0
2016-04-03T01:12:37.632Z,0
2016-04-03T01:13:37.853Z,0
2016-04-03T01:14:51.701Z,0
2016-04-03T01:15:37.811Z,0
2016-04-03T01:16:37.627Z,0
2016-04-03T01:17:38.008Z,0
2016-04-03T01:18:37.855Z,0
2016-04-03T01:19:52.047Z,0
2016-04-03T01:20:37.625Z,0
2016-04-03T01:21:37.628Z,0
2016-04-03T01:22:37.630Z,0
2016-04-03T01:23:37.665Z,0
2016-04-03T01:24:37.824Z,0
2016-04-03T01:25:37.639Z,0
2016-04-03T01:27:37.645Z,0
2016-04-03T01:28:37.851Z,0
2016-04-03T01:29:37.650Z,0
2016-04-03T01:30:37.621Z,0
2016-04-03T01:31:37.890Z,0
2016-04-03T01:32:37.862Z,0
2016-04-03T01:33:37.895Z,0
2016-04-03T01:34:37.695Z,0
2016-04-03T01:35:37.650Z,0
2016-04-03T01:36:37.653Z,0
2016-04-03T01:37:37.640Z,0
2016-04-03T01:38:37.673Z,0
2016-04-03T01:39:37.646Z,0
2016-04-03T01:40:37.664Z,0
2016-04-03T01:41:37.870Z,0
2016-04-03T01:42:37.169Z,0
2016-04-03T01:43:37.672Z,0
2016-04-03T01:44:37.659Z,0
2016-04-03T01:45:38.302Z,0
2016-04-03T01:46:37.649Z,0
2016-04-03T01:47:37.683Z,0
2016-04-03T01:48:38.061Z,0
2016-04-03T01:49:37.392Z,0
2016-04-03T01:50:37.894Z,0
2016-04-03T01:51:52.180Z,0
2016-04-03T01:52:37.665Z,0
2016-04-03T01:53:37.668Z,0
2016-04-03T01:54:37.686Z,0
2016-04-03T01:55:37.892Z,0
2016-04-03T01:56:37.410Z,0
2016-04-03T01:57:37.866Z,0
2016-04-03T01:58:37.884Z,0
2016-04-03T01:59:37.699Z,0
2016-04-03T02:00:37.687Z,0
2016-04-03T02:01:37.674Z,0
2016-04-03T02:02:37.880Z,0
2016-04-03T02:03:38.116Z,0
2016-04-03T02:04:37.729Z,0
2016-04-03T02:05:37.700Z,0
2016-04-03T02:06:52.018Z,0
2016-04-03T02:07:51.806Z,0
2016-04-03T02:08:37.587Z,0
2016-04-03T02:09:37.700Z,0
2016-04-03T02:10:37.953Z,0
2016-04-03T02:11:37.706Z,0
2016-04-03T02:12:38.412Z,0
2016-04-03T02:13:37.711Z,0
2016-04-03T02:14:37.714Z,0
2016-04-03T02:15:37.935Z,0
2016-04-03T02:16:37.984Z,0
2016-04-03T02:17:37.909Z,0
2016-04-03T02:18:51.836Z,0
2016-04-03T02:19:51.838Z,0
2016-04-03T02:20:37.713Z,0
2016-04-03T02:21:37.732Z,0
2016-04-03T02:22:37.735Z,0
2016-04-03T02:23:37.957Z,0
2016-04-03T02:24:51.930Z,0
2016-04-03T02:25:37.946Z,0
2016-04-03T02:26:37.761Z,0
2016-04-03T02:28:38.345Z,0
2016-04-03T02:29:36.988Z,0
2016-04-03T02:30:37.663Z,0
2016-04-03T02:31:37.759Z,0
2016-04-03T02:32:37.746Z,0
2016-04-03T02:33:37.748Z,0
2016-04-03T02:34:37.970Z,0
2016-04-03T02:35:38.192Z,0
2016-04-03T02:36:37.992Z,0
2016-04-03T02:37:37.729Z,0
2016-04-03T02:38:37.778Z,0
2016-04-03T02:39:37.937Z,0
2016-04-03T02:40:37.611Z,0
2016-04-03T02:41:37.786Z,0
2016-04-03T02:42:38.179Z,0
2016-04-03T02:43:37.791Z,0
2016-04-03T02:44:37.747Z,0
2016-04-03T02:45:52.065Z,0
2016-04-03T02:47:38.022Z,0
2016-04-03T02:48:37.820Z,0
2016-04-03T02:49:38.027Z,0
2016-04-03T02:50:52.063Z,0
2016-04-03T02:51:37.782Z,0
2016-04-03T02:52:37.830Z,0
2016-04-03T02:53:37.787Z,0
2016-04-03T02:55:37.777Z,0
2016-04-03T02:56:37.796Z,0
2016-04-03T02:57:37.985Z,0
2016-04-03T02:58:37.801Z,0
2016-04-03T02:59:37.772Z,0
2016-04-03T03:00:37.791Z,0
2016-04-03T03:01:37.777Z,0
2016-04-03T03:02:38.015Z,0
2016-04-03T03:03:38.048Z,0
2016-04-03T03:04:38.067Z,0
2016-04-03T03:06:37.806Z,0
2016-04-03T03:07:37.793Z,0
2016-04-03T03:08:37.811Z,0
2016-04-03T03:09:52.083Z,0
2016-04-03T03:10:37.786Z,0
2016-04-03T03:11:37.820Z,0
2016-04-03T03:12:37.807Z,0
2016-04-03T03:13:37.825Z,0
2016-04-03T03:14:38.047Z,0
2016-04-03T03:15:37.830Z,0
2016-04-03T03:16:37.833Z,0
2016-04-03T03:17:38.008Z,0
2016-04-03T03:18:37.807Z,0
2016-04-03T03:19:37.936Z,0
2016-04-03T03:20:51.909Z,0
2016-04-03T03:21:38.253Z,0
2016-04-03T03:22:38.006Z,0
2016-04-03T03:23:38.055Z,0
2016-04-03T03:24:38.042Z,0
2016-04-03T03:25:38.029Z,0
2016-04-03T03:26:38.235Z,0
2016-04-03T03:27:37.832Z,0
2016-04-03T03:28:37.818Z,0
2016-04-03T03:29:37.837Z,0
2016-04-03T03:30:37.840Z,0
2016-04-03T03:31:37.404Z,0
2016-04-03T03:32:38.221Z,0
2016-04-03T03:33:37.848Z,0
2016-04-03T03:34:37.944Z,0
2016-04-03T03:35:37.822Z,0
2016-04-03T03:36:38.074Z,0
2016-04-03T03:37:52.329Z,0
2016-04-03T03:38:37.829Z,0
2016-04-03T03:39:37.348Z,0
2016-04-03T03:40:38.054Z,0
2016-04-03T03:41:37.353Z,0
2016-04-03T03:42:38.075Z,0
2016-04-03T03:43:37.842Z,0
2016-04-03T03:44:52.223Z,0
2016-04-03T03:45:37.755Z,0
2016-04-03T03:46:37.836Z,0
2016-04-03T03:47:37.886Z,0
2016-04-03T03:48:51.969Z,0
2016-04-03T03:49:37.406Z,0
2016-04-03T03:50:37.861Z,0
2016-04-03T03:51:37.833Z,0
2016-04-03T03:52:37.836Z,0
2016-04-03T03:53:37.885Z,0
2016-04-03T03:54:38.060Z,0
2016-04-03T03:55:38.688Z,0
2016-04-03T03:56:37.863Z,0
2016-04-03T03:57:38.053Z,0
2016-04-03T03:58:38.478Z,0
2016-04-03T03:59:38.074Z,0
2016-04-03T04:00:37.921Z,0
2016-04-03T04:01:37.688Z,0
2016-04-03T04:02:51.663Z,0
2016-04-03T04:03:38.163Z,0
2016-04-03T04:04:38.134Z,0
2016-04-03T04:05:37.887Z,0
2016-04-03T04:06:38.154Z,0
2016-04-03T04:07:38.065Z,0
2016-04-03T04:08:37.848Z,0
2016-04-03T04:09:38.085Z,0
2016-04-03T04:10:37.870Z,0
2016-04-03T04:11:37.872Z,0
2016-04-03T04:12:37.859Z,0
2016-04-03T04:13:37.908Z,0
2016-04-03T04:14:38.098Z,0
2016-04-03T04:15:38.304Z,0
2016-04-03T04:16:37.885Z,0
2016-04-03T04:17:52.374Z,0
2016-04-03T04:18:38.093Z,0
2016-04-03T04:19:38.111Z,0
2016-04-03T04:20:37.411Z,0
2016-04-03T04:21:37.899Z,0
2016-04-03T04:22:52.201Z,0
2016-04-03T04:23:37.905Z,0
2016-04-03T04:24:37.907Z,0
2016-04-03T04:25:38.066Z,0
2016-04-03T04:26:37.927Z,0
2016-04-03T04:27:37.899Z,0
2016-04-03T04:28:37.918Z,0
2016-04-03T04:29:37.888Z,0
2016-04-03T04:30:37.924Z,5
2016-04-03T04:31:38.347Z,5
2016-04-03T04:32:37.897Z,5
2016-04-03T04:33:38.338Z,5
2016-04-03T04:34:52.124Z,5
2016-04-03T04:35:37.937Z,5
2016-04-03T04:36:37.954Z,5
2016-04-03T04:37:37.895Z,10
2016-04-03T04:38:37.913Z,10
2016-04-03T04:39:38.118Z,10
2016-04-03T04:40:37.450Z,10
2016-04-03T04:41:37.889Z,10
2016-04-03T04:42:37.908Z,15
2016-04-03T04:43:38.098Z,15
2016-04-03T04:44:38.101Z,15
2016-04-03T04:45:38.307Z,15
2016-04-03T04:46:38.122Z,20
2016-04-03T04:47:37.500Z,20
2016-04-03T04:48:37.986Z,20
2016-04-03T04:49:38.505Z,20
2016-04-03T04:50:38.320Z,25
2016-04-03T04:51:38.308Z,25
2016-04-03T04:52:38.138Z,25
2016-04-03T04:53:52.205Z,30
2016-04-03T04:54:37.908Z,30
2016-04-03T04:55:38.130Z,30
2016-04-03T04:56:37.633Z,30
2016-04-03T04:57:52.217Z,35
2016-04-03T04:58:37.920Z,35
2016-04-03T04:59:37.438Z,35
2016-04-03T05:01:37.913Z,40
2016-04-03T05:02:37.915Z,40
2016-04-03T05:03:52.435Z,40
2016-04-03T05:04:52.110Z,45
2016-04-03T05:05:37.938Z,45
2016-04-03T05:06:37.941Z,45
2016-04-03T05:07:52.291Z,50
2016-04-03T05:08:38.166Z,50
2016-04-03T05:09:38.168Z,50
2016-04-03T05:10:38.156Z,50
2016-04-03T05:11:37.954Z,55
2016-04-03T05:12:37.957Z,55
2016-04-03T05:13:37.929Z,55
2016-04-03T05:14:37.947Z,55
2016-04-03T05:15:52.228Z,60
2016-04-03T05:16:37.915Z,60
2016-04-03T05:17:37.922Z,60
2016-04-03T05:18:52.000Z,65
2016-04-03T05:19:38.156Z,65
2016-04-03T05:20:37.935Z,65
2016-04-03T05:21:38.122Z,70
2016-04-03T05:23:20.181Z,70
2016-04-03T05:23:37.869Z,70
2016-04-03T05:25:06.463Z,75
2016-04-03T05:25:38.120Z,75
2016-04-03T05:26:37.371Z,75
2016-04-03T05:27:38.700Z,75
2016-04-03T05:28:37.858Z,80
2016-04-03T05:29:37.906Z,80
2016-04-03T05:30:37.877Z,85
2016-04-03T05:31:37.925Z,85
2016-04-03T05:32:38.052Z,90
2016-04-03T05:33:37.899Z,90
2016-04-03T05:35:38.122Z,95
2016-04-03T05:36:37.906Z,100
2016-04-03T05:37:38.096Z,100
2016-04-03T05:38:37.895Z,105
2016-04-03T05:39:38.101Z,105
2016-04-03T05:40:38.321Z,110
2016-04-03T05:41:37.981Z,110
2016-04-03T05:42:37.906Z,115
2016-04-03T05:43:38.517Z,115
2016-04-03T05:44:38.145Z,120
2016-04-03T05:45:38.506Z,120
2016-04-03T05:46:38.119Z,125
2016-04-03T05:47:38.528Z,125
2016-04-03T05:48:37.936Z,130
2016-04-03T05:49:38.642Z,130
2016-04-03T05:50:37.911Z,135
2016-04-03T05:51:37.930Z,135
2016-04-03T05:52:37.947Z,140
2016-04-03T05:53:37.919Z,145
2016-04-03T05:54:37.688Z,145
2016-04-03T05:55:52.019Z,145
2016-04-03T05:56:37.943Z,145
2016-04-03T05:57:37.914Z,150
2016-04-03T05:58:38.589Z,155
2016-04-03T05:59:38.202Z,155
2016-04-03T06:00:38.141Z,160
2016-04-03T06:01:37.722Z,160
2016-04-03T06:02:38.568Z,165
2016-04-03T06:03:37.977Z,165
2016-04-03T06:04:38.121Z,165
2016-04-03T06:05:37.452Z,170
2016-04-03T06:06:52.251Z,170
2016-04-03T06:07:38.144Z,170
2016-04-03T06:08:38.366Z,170
2016-04-03T06:09:38.196Z,170
2016-04-03T06:10:38.168Z,170
2016-04-03T06:12:38.189Z,170
2016-04-03T06:13:37.989Z,175
2016-04-03T06:14:37.507Z,175
2016-04-03T06:15:37.978Z,175
2016-04-03T06:16:37.997Z,175
2016-04-03T06:17:38.187Z,175
2016-04-03T06:18:38.236Z,175
2016-04-03T06:20:38.398Z,180
2016-04-03T06:21:37.995Z,180
2016-04-03T06:22:52.106Z,185
2016-04-03T06:23:52.109Z,185
2016-04-03T06:24:38.019Z,190
2016-04-03T06:25:38.006Z,190
2016-04-03T06:26:38.633Z,200
2016-04-03T06:27:37.855Z,205
2016-04-03T06:28:38.030Z,210
2016-04-03T06:29:38.016Z,215
2016-04-03T06:30:38.066Z,215
2016-04-03T06:31:37.584Z,220
2016-04-03T06:32:38.258Z,220
2016-04-03T06:33:38.058Z,225
2016-04-03T06:34:38.764Z,235
2016-04-03T06:35:38.079Z,230
2016-04-03T06:36:38.066Z,235
2016-04-03T06:37:38.288Z,240
2016-04-03T06:38:38.587Z,245
2016-04-03T06:39:38.074Z,250
2016-04-03T06:40:38.062Z,250
2016-04-03T06:41:38.126Z,255
2016-04-03T06:42:38.082Z,250
2016-04-03T06:43:38.507Z,255
2016-04-03T06:45:38.153Z,250
2016-04-03T06:46:38.140Z,255
2016-04-03T06:47:38.346Z,260
2016-04-03T06:48:52.412Z,260
2016-04-03T06:49:38.429Z,265
2016-04-03T06:50:38.104Z,265
2016-04-03T06:51:38.122Z,265
2016-04-03T06:52:38.140Z,260
2016-04-03T06:53:38.159Z,260
2016-04-03T06:54:38.145Z,260
2016-04-03T06:55:38.164Z,260
2016-04-03T06:56:38.620Z,265
2016-04-03T06:57:52.467Z,250
2016-04-03T06:58:38.595Z,240
2016-04-03T06:59:38.378Z,220
2016-04-03T07:00:38.194Z,215
2016-04-03T07:01:37.680Z,210
2016-04-03T07:02:38.199Z,205
2016-04-03T07:03:38.202Z,205
2016-04-03T07:04:38.501Z,205
2016-04-03T07:05:41.269Z,205
2016-04-03T07:06:38.257Z,215
2016-04-03T07:07:37.962Z,220
2016-04-03T07:08:38.215Z,230
2016-04-03T07:09:38.468Z,230
2016-04-03T07:10:38.267Z,225
2016-04-03T07:11:38.224Z,230
2016-04-03T07:12:38.257Z,230
2016-04-03T07:13:38.244Z,230
2016-04-03T07:14:38.466Z,230
2016-04-03T07:15:38.282Z,235
2016-04-03T07:16:38.471Z,235
2016-04-03T07:17:38.474Z,240
2016-04-03T07:18:37.805Z,240
2016-04-03T07:20:38.295Z,240
2016-04-03T07:21:52.594Z,250
2016-04-03T07:22:38.503Z,240
2016-04-03T07:23:37.849Z,245
2016-04-03T07:24:38.320Z,240
2016-04-03T07:25:38.354Z,245
2016-04-03T07:26:38.342Z,240
2016-04-03T07:27:38.594Z,240
2016-04-03T07:28:38.347Z,240
2016-04-03T07:29:38.600Z,245
2016-04-03T07:30:38.571Z,255
2016-04-03T07:31:37.980Z,260
2016-04-03T07:32:39.405Z,250
2016-04-03T07:33:38.876Z,250
2016-04-03T07:34:38.442Z,240
2016-04-03T07:35:38.398Z,245
2016-04-03T07:36:38.822Z,245
2016-04-03T07:37:38.403Z,255
2016-04-03T07:38:38.656Z,265
2016-04-03T07:39:38.424Z,260
2016-04-03T07:40:38.442Z,265
2016-04-03T07:41:38.647Z,290
2016-04-03T07:42:38.650Z,325
2016-04-03T07:43:38.450Z,380
2016-04-03T07:44:52.577Z,265
2016-04-03T07:45:38.455Z,275
2016-04-03T07:46:38.708Z,255
2016-04-03T07:47:38.492Z,265
2016-04-03T07:48:38.495Z,240
2016-04-03T07:49:38.543Z,235
2016-04-03T07:50:38.531Z,235
2016-04-03T07:51:38.487Z,235
2016-04-03T07:52:38.756Z,235
2016-04-03T07:53:38.540Z,240
2016-04-03T07:54:52.636Z,265
2016-04-03T07:55:38.764Z,270
2016-04-03T07:56:52.142Z,265
2016-04-03T07:57:38.565Z,290
2016-04-03T07:58:38.756Z,270
2016-04-03T07:59:38.603Z,240
2016-04-03T08:00:38.558Z,240
2016-04-03T08:01:38.670Z,235
2016-04-03T08:02:52.688Z,240
2016-04-03T08:03:38.692Z,240
2016-04-03T08:04:38.631Z,245
2016-04-03T08:05:38.619Z,245
2016-04-03T08:06:52.731Z,245
2016-04-03T08:07:38.639Z,250
2016-04-03T08:08:38.658Z,250
2016-04-03T08:09:52.738Z,260
2016-04-03T08:10:52.741Z,265
2016-04-03T08:11:38.869Z,270
2016-04-03T08:12:38.731Z,275
2016-04-03T08:13:38.702Z,285
2016-04-03T08:14:38.690Z,280
2016-04-03T08:15:38.708Z,285
2016-04-03T08:16:38.913Z,290
2016-04-03T08:17:38.901Z,275
2016-04-03T08:18:38.746Z,300
2016-04-03T08:19:53.109Z,300
2016-04-03T08:21:39.161Z,305
2016-04-03T08:22:39.430Z,305
2016-04-03T08:23:39.198Z,305
2016-04-03T08:24:38.842Z,305
2016-04-03T08:26:38.769Z,300
2016-04-03T08:27:38.756Z,295
2016-04-03T08:28:52.884Z,285
2016-04-03T08:29:52.887Z,280
2016-04-03T08:30:38.811Z,275
2016-04-03T08:31:38.798Z,275
2016-04-03T08:32:38.832Z,280
2016-04-03T08:33:38.834Z,285
2016-04-03T08:34:39.181Z,285
2016-04-03T08:35:53.168Z,295
2016-04-03T08:36:38.655Z,295
2016-04-03T08:37:53.173Z,290
2016-04-03T08:38:53.191Z,290
2016-04-03T08:39:38.882Z,285
2016-04-03T08:40:39.150Z,285
2016-04-03T08:41:53.183Z,280
2016-04-03T08:42:39.077Z,275
2016-04-03T08:43:39.143Z,270
2016-04-03T08:44:39.364Z,270
2016-04-03T08:45:38.913Z,270
2016-04-03T08:46:38.822Z,265
2016-04-03T08:47:38.965Z,265
2016-04-03T08:48:38.952Z,260
2016-04-03T08:49:38.893Z,260
2016-04-03T08:50:38.957Z,265
2016-04-03T08:51:38.992Z,270
2016-04-03T08:52:38.995Z,275
2016-04-03T08:53:38.965Z,280
2016-04-03T08:54:38.984Z,280
2016-04-03T08:55:39.003Z,285
2016-04-03T08:56:38.567Z,290
2016-04-03T08:57:38.993Z,290
2016-04-03T08:58:39.245Z,290
2016-04-03T08:59:39.264Z,295
2016-04-03T09:00:39.063Z,300
2016-04-03T09:01:39.097Z,300
2016-04-03T09:02:39.100Z,305
2016-04-03T09:03:39.852Z,310
2016-04-03T09:04:39.308Z,320
2016-04-03T09:05:39.577Z,320
2016-04-03T09:06:39.111Z,325
2016-04-03T09:07:39.657Z,335
2016-04-03T09:08:39.310Z,335
2016-04-03T09:09:39.188Z,345
2016-04-03T09:10:39.129Z,350
2016-04-03T09:11:39.568Z,360
2016-04-03T09:12:39.165Z,365
2016-04-03T09:13:39.386Z,365
2016-04-03T09:14:39.389Z,370
2016-04-03T09:15:39.595Z,370
2016-04-03T09:16:53.488Z,385
2016-04-03T09:17:39.398Z,385
2016-04-03T09:18:53.290Z,390
2016-04-03T09:19:39.356Z,400
2016-04-03T09:20:39.624Z,405
2016-04-03T09:21:39.220Z,410
2016-04-03T09:22:39.254Z,410
2016-04-03T09:23:39.256Z,405
2016-04-03T09:24:39.244Z,405
2016-04-03T09:25:39.543Z,395
2016-04-03T09:26:39.280Z,395
2016-04-03T09:27:39.502Z,390
2016-04-03T09:28:39.536Z,390
2016-04-03T09:29:39.523Z,390
2016-04-03T09:30:39.525Z,380
2016-04-03T09:31:53.435Z,375
2016-04-03T09:32:39.609Z,370
2016-04-03T09:33:39.409Z,375
2016-04-03T09:34:53.661Z,375
2016-04-03T09:35:39.368Z,375
2016-04-03T09:36:54.104Z,375
2016-04-03T09:37:39.435Z,385
2016-04-03T09:38:39.424Z,385
2016-04-03T09:39:39.395Z,385
2016-04-03T09:40:53.523Z,385
2016-04-03T09:41:39.448Z,375
2016-04-03T09:42:39.669Z,370
2016-04-03T09:43:39.453Z,365
2016-04-03T09:44:39.675Z,360
2016-04-03T09:45:39.646Z,360
2016-04-03T09:46:38.742Z,365
2016-04-03T09:47:40.120Z,365
2016-04-03T09:48:39.701Z,365
2016-04-03T09:49:40.063Z,360
2016-04-03T09:50:39.722Z,350
2016-04-03T09:51:39.022Z,345
2016-04-03T09:52:39.603Z,340
2016-04-03T09:53:40.403Z,340
2016-04-03T09:54:39.967Z,340
2016-04-03T09:55:39.985Z,335
2016-04-03T09:56:39.582Z,335
2016-04-03T09:57:39.600Z,325
2016-04-03T09:58:39.602Z,320
2016-04-03T09:59:39.605Z,315
2016-04-03T10:00:39.702Z,310
2016-04-03T10:01:39.658Z,310
2016-04-03T10:02:39.765Z,310
2016-04-03T10:03:39.520Z,310
2016-04-03T10:04:40.508Z,315
2016-04-03T10:05:39.755Z,325
2016-04-03T10:06:42.640Z,335
2016-04-03T10:07:39.940Z,345
2016-04-03T10:08:39.707Z,345
2016-04-03T10:09:39.710Z,345
2016-04-03T10:10:39.759Z,350
2016-04-03T10:11:39.935Z,350
2016-04-03T10:13:40.159Z,340
2016-04-03T10:14:40.506Z,335
2016-04-03T10:15:39.789Z,330
2016-04-03T10:16:39.823Z,330
2016-04-03T10:17:39.794Z,330
2016-04-03T10:18:39.828Z,330
2016-04-03T10:19:39.894Z,335
2016-04-03T10:20:39.850Z,340
2016-04-03T10:21:40.055Z,340
2016-04-03T10:22:39.855Z,340
2016-04-03T10:23:53.498Z,335
2016-04-03T10:24:39.892Z,335
2016-04-03T10:25:39.878Z,330
2016-04-03T10:26:40.100Z,330
2016-04-03T10:27:54.008Z,325
2016-04-03T10:28:39.949Z,325
2016-04-03T10:29:39.952Z,325
2016-04-03T10:30:40.392Z,325
2016-04-03T10:31:40.224Z,330
2016-04-03T10:32:54.522Z,335
2016-04-03T10:33:54.479Z,325
2016-04-03T10:34:39.527Z,325
2016-04-03T10:35:54.124Z,330
2016-04-03T10:36:39.751Z,330
2016-04-03T10:37:54.332Z,335
2016-04-03T10:38:40.085Z,330
2016-04-03T10:39:40.276Z,330
2016-04-03T10:40:40.482Z,340
2016-04-03T10:41:40.078Z,350
2016-04-03T10:42:40.081Z,350
2016-04-03T10:43:40.584Z,355
2016-04-03T10:44:40.305Z,360
2016-04-03T10:45:40.542Z,370
2016-04-03T10:46:40.139Z,370
2016-04-03T10:47:40.392Z,375
2016-04-03T10:48:40.550Z,380
2016-04-03T10:49:40.459Z,390
2016-04-03T10:50:40.852Z,400
2016-04-03T10:51:40.167Z,410
2016-04-03T10:52:40.404Z,415
2016-04-03T10:53:40.219Z,415
2016-04-03T10:54:54.581Z,420
2016-04-03T10:55:39.725Z,425
2016-04-03T10:56:39.978Z,430
2016-04-03T10:57:54.386Z,435
2016-04-03T10:58:39.796Z,445
2016-04-03T10:59:40.516Z,450
2016-04-03T11:00:54.972Z,465
2016-04-03T11:01:54.396Z,470
2016-04-03T11:02:40.806Z,475
2016-04-03T11:03:40.449Z,490
2016-04-03T11:04:40.468Z,500
2016-04-03T11:05:40.674Z,505
2016-04-03T11:06:40.427Z,510
2016-04-03T11:07:40.390Z,505
2016-04-03T11:08:40.126Z,505
2016-04-03T11:09:40.426Z,505
2016-04-03T11:10:40.445Z,500
2016-04-03T11:11:40.667Z,500
2016-04-03T11:12:41.138Z,500
2016-04-03T11:14:40.456Z,495
2016-04-03T11:15:40.473Z,495
2016-04-03T11:16:40.273Z,495
2016-04-03T11:17:40.494Z,500
2016-04-03T11:18:40.700Z,505
2016-04-03T11:19:40.531Z,505
2016-04-03T11:20:54.644Z,510
2016-04-03T11:21:40.786Z,510
2016-04-03T11:22:40.774Z,520
2016-04-03T11:23:40.589Z,525
2016-04-03T11:24:40.810Z,530
2016-04-03T11:25:41.016Z,535
2016-04-03T11:26:40.863Z,545
2016-04-03T11:27:40.319Z,550
2016-04-03T11:28:40.838Z,545
2016-04-03T11:29:40.668Z,540
2016-04-03T11:30:40.718Z,535
2016-04-03T11:31:41.314Z,525
2016-04-03T11:32:40.691Z,515
2016-04-03T11:33:40.710Z,505
2016-04-03T11:34:55.056Z,500
2016-04-03T11:35:40.481Z,500
2016-04-03T11:36:40.952Z,510
2016-04-03T11:37:40.768Z,520
2016-04-03T11:38:40.771Z,530
2016-04-03T11:39:40.788Z,540
2016-04-03T11:40:54.604Z,550
2016-04-03T11:41:40.840Z,550
2016-04-03T11:42:40.828Z,540
2016-04-03T11:43:40.877Z,525
2016-04-03T11:44:56.020Z,510
2016-04-03T11:45:40.586Z,510
2016-04-03T11:46:54.995Z,500
2016-04-03T11:47:40.889Z,495
2016-04-03T11:48:41.766Z,495
2016-04-03T11:50:41.193Z,485
2016-04-03T11:51:41.181Z,480
2016-04-03T11:52:40.995Z,475
2016-04-03T11:54:41.189Z,470
2016-04-03T11:55:55.410Z,475
2016-04-03T11:56:41.256Z,475
2016-04-03T11:57:40.633Z,470
2016-04-03T11:58:55.480Z,465
2016-04-03T11:59:41.045Z,465
2016-04-03T12:00:55.376Z,470
2016-04-03T12:01:41.083Z,470
2016-04-03T12:02:41.475Z,475
2016-04-03T12:03:41.384Z,475
2016-04-03T12:04:41.106Z,470
2016-04-03T12:05:41.125Z,470
2016-04-03T12:06:55.471Z,460
2016-04-03T12:07:41.426Z,460
2016-04-03T12:08:41.366Z,460
2016-04-03T12:09:41.057Z,460
2016-04-03T12:10:41.232Z,460
2016-04-03T12:11:41.219Z,470
2016-04-03T12:12:41.252Z,470
2016-04-03T12:13:41.255Z,470
2016-04-03T12:14:41.492Z,480
2016-04-03T12:15:41.323Z,490
2016-04-03T12:16:40.795Z,495
2016-04-03T12:17:41.298Z,495
2016-04-03T12:18:55.534Z,495
2016-04-03T12:20:41.587Z,490
2016-04-03T12:21:41.651Z,475
2016-04-03T12:22:41.389Z,470
2016-04-03T12:23:41.641Z,465
2016-04-03T12:24:41.644Z,460
2016-04-03T12:25:41.412Z,460
2016-04-03T12:26:41.664Z,465
2016-04-03T12:27:41.497Z,480
2016-04-03T12:28:41.655Z,495
2016-04-03T12:30:41.708Z,500
2016-04-03T12:31:41.507Z,495
2016-04-03T12:32:55.853Z,480
2016-04-03T12:33:41.731Z,475
2016-04-03T12:34:41.608Z,455
2016-04-03T12:35:41.581Z,445
2016-04-03T12:36:41.583Z,425
2016-04-03T12:37:44.835Z,400
2016-04-03T12:38:41.635Z,385
2016-04-03T12:39:41.856Z,365
2016-04-03T12:40:41.860Z,350
2016-04-03T12:41:41.878Z,335
2016-04-03T12:42:41.677Z,330
2016-04-03T12:44:56.043Z,325
2016-04-03T12:45:55.857Z,330
2016-04-03T12:46:41.751Z,335
2016-04-03T12:47:41.832Z,340
2016-04-03T12:48:41.804Z,340
2016-04-03T12:49:41.837Z,340
2016-04-03T12:50:41.809Z,340
2016-04-03T12:51:41.796Z,340
2016-04-03T12:52:41.829Z,335
2016-04-03T12:53:41.863Z,335
2016-04-03T12:54:41.881Z,330
2016-04-03T12:55:41.884Z,335
2016-04-03T12:56:56.028Z,330
2016-04-03T12:57:41.921Z,325
2016-04-03T12:58:42.158Z,325
2016-04-03T13:00:41.961Z,325
2016-04-03T13:01:42.214Z,320
2016-04-03T13:02:42.231Z,325
2016-04-03T13:03:42.014Z,330
2016-04-03T13:04:42.050Z,330
2016-04-03T13:05:42.036Z,325
2016-04-03T13:06:42.039Z,325
2016-04-03T13:07:42.058Z,320
2016-04-03T13:08:42.278Z,325
2016-04-03T13:09:56.391Z,310
2016-04-03T13:10:42.113Z,315
2016-04-03T13:11:42.584Z,305
2016-04-03T13:12:42.352Z,305
2016-04-03T13:13:42.605Z,305
2016-04-03T13:14:41.749Z,305
2016-04-03T13:15:42.438Z,310
2016-04-03T13:16:42.394Z,310
2016-04-03T13:17:42.225Z,320
2016-04-03T13:18:42.665Z,330
2016-04-03T13:19:42.246Z,335
2016-04-03T13:20:42.265Z,340
2016-04-03T13:21:42.360Z,345
2016-04-03T13:22:42.315Z,350
2016-04-03T13:23:42.773Z,355
2016-04-03T13:24:44.025Z,360
2016-04-03T13:25:41.903Z,375
2016-04-03T13:26:42.359Z,380
2016-04-03T13:27:42.626Z,385
2016-04-03T13:28:42.411Z,395
2016-04-03T13:29:42.413Z,395
2016-04-03T13:30:42.432Z,395
2016-04-03T13:31:42.434Z,390
2016-04-03T13:32:42.452Z,395
2016-04-03T13:33:42.471Z,400
2016-04-03T13:34:42.817Z,405
2016-04-03T13:35:42.757Z,410
2016-04-03T13:36:42.557Z,410
2016-04-03T13:37:42.966Z,410
2016-04-03T13:38:43.500Z,415
2016-04-03T13:40:42.803Z,400
2016-04-03T13:41:42.649Z,395
2016-04-03T13:42:42.636Z,390
2016-04-03T13:43:42.622Z,385
2016-04-03T13:44:56.266Z,370
2016-04-03T13:45:42.675Z,370
2016-04-03T13:46:56.318Z,360
2016-04-03T13:47:42.712Z,360
2016-04-03T13:48:42.918Z,365
2016-04-03T13:49:42.779Z,375
2016-04-03T13:50:42.939Z,400
2016-04-03T13:51:42.957Z,410
2016-04-03T13:52:42.757Z,430
2016-04-03T13:53:56.885Z,460
2016-04-03T13:54:42.793Z,470
2016-04-03T13:55:42.812Z,485
2016-04-03T13:56:43.079Z,495
2016-04-03T13:57:42.879Z,500
2016-04-03T13:58:43.054Z,505
2016-04-03T13:59:43.087Z,495
2016-04-03T14:00:43.106Z,490
2016-04-03T14:01:42.920Z,475
2016-04-03T14:02:42.939Z,460
2016-04-03T14:03:57.051Z,435
2016-04-03T14:04:46.053Z,425
2016-04-03T14:05:42.979Z,410
2016-04-03T14:06:42.997Z,395
2016-04-03T14:07:43.000Z,380
2016-04-03T14:08:43.033Z,365
2016-04-03T14:09:43.224Z,350
2016-04-03T14:10:43.461Z,345
2016-04-03T14:11:42.572Z,335
2016-04-03T14:12:43.279Z,335
2016-04-03T14:13:43.297Z,330
2016-04-03T14:14:43.097Z,330
2016-04-03T14:15:43.131Z,330
2016-04-03T14:16:42.697Z,330
2016-04-03T14:17:43.183Z,325
2016-04-03T14:18:43.202Z,330
2016-04-03T14:19:43.188Z,335
2016-04-03T14:20:43.435Z,345
2016-04-03T14:21:43.222Z,350
2016-04-03T14:22:43.836Z,360
2016-04-03T14:23:43.200Z,365
2016-04-03T14:24:43.236Z,370
2016-04-03T14:25:43.260Z,375
2016-04-03T14:26:57.039Z,380
2016-04-03T14:27:43.286Z,375
2016-04-03T14:28:43.456Z,375
2016-04-03T14:29:57.360Z,375